sensor_id;sensor_type;location;lat;lon;timestamp;P1;durP1;ratioP1;P2;durP2;ratioP2
20559;SDS011;10438;51.454;6.718;2022-12-07T00:03:32;23.50;;;15.63;;
20559;SDS011;10438;51.454;6.718;2022-12-07T00:05:58;23.10;;;15.73;;
20559;SDS011;10438;51.454;6.718;2022-12-07T00:08:25;21.57;;;15.47;;
20559;SDS011;10438;51.454;6.718;2022-12-07T00:10:50;25.50;;;15.97;;
20559;SDS011;10438;51.454;6.718;2022-12-07T00:13:16;32.70;;;16.33;;
20559;SDS011;10438;51.454;6.718;2022-12-07T00:15:41;25.87;;;16.33;;
20559;SDS011;10438;51.454;6.718;2022-12-07T00:18:07;22.40;;;16.63;;
20559;SDS011;10438;51.454;6.718;2022-12-07T00:20:33;26.07;;;16.60;;
20559;SDS011;10438;51.454;6.718;2022-12-07T00:22:58;30.90;;;17.50;;
20559;SDS011;10438;51.454;6.718;2022-12-07T00:25:24;29.50;;;17.03;;
20559;SDS011;10438;51.454;6.718;2022-12-07T00:27:50;26.00;;;16.50;;
20559;SDS011;10438;51.454;6.718;2022-12-07T00:30:17;24.90;;;16.73;;
20559;SDS011;10438;51.454;6.718;2022-12-07T00:32:42;26.30;;;16.60;;
20559;SDS011;10438;51.454;6.718;2022-12-07T00:35:08;28.13;;;16.77;;
20559;SDS011;10438;51.454;6.718;2022-12-07T00:37:33;25.17;;;16.77;;
20559;SDS011;10438;51.454;6.718;2022-12-07T00:39:59;27.63;;;17.57;;
20559;SDS011;10438;51.454;6.718;2022-12-07T00:42:24;30.17;;;17.33;;
20559;SDS011;10438;51.454;6.718;2022-12-07T00:44:50;27.10;;;16.70;;
20559;SDS011;10438;51.454;6.718;2022-12-07T00:47:15;27.20;;;17.97;;
20559;SDS011;10438;51.454;6.718;2022-12-07T00:49:41;26.50;;;17.23;;
20559;SDS011;10438;51.454;6.718;2022-12-07T00:52:07;27.23;;;17.23;;
20559;SDS011;10438;51.454;6.718;2022-12-07T00:54:32;23.20;;;17.10;;
20559;SDS011;10438;51.454;6.718;2022-12-07T00:56:57;27.10;;;17.80;;
20559;SDS011;10438;51.454;6.718;2022-12-07T00:59:23;28.27;;;17.53;;
20559;SDS011;10438;51.454;6.718;2022-12-07T01:01:49;24.77;;;17.17;;
20559;SDS011;10438;51.454;6.718;2022-12-07T01:04:14;28.77;;;17.03;;
20559;SDS011;10438;51.454;6.718;2022-12-07T01:06:40;26.03;;;17.33;;
20559;SDS011;10438;51.454;6.718;2022-12-07T01:09:06;26.83;;;17.43;;
20559;SDS011;10438;51.454;6.718;2022-12-07T01:11:31;27.53;;;18.70;;
20559;SDS011;10438;51.454;6.718;2022-12-07T01:13:58;22.27;;;16.23;;
20559;SDS011;10438;51.454;6.718;2022-12-07T01:16:26;24.90;;;17.30;;
20559;SDS011;10438;51.454;6.718;2022-12-07T01:18:53;24.40;;;17.03;;
20559;SDS011;10438;51.454;6.718;2022-12-07T01:21:22;24.27;;;16.07;;
20559;SDS011;10438;51.454;6.718;2022-12-07T01:23:49;28.80;;;16.77;;
20559;SDS011;10438;51.454;6.718;2022-12-07T01:26:16;26.63;;;16.10;;
20559;SDS011;10438;51.454;6.718;2022-12-07T01:28:44;32.83;;;16.93;;
20559;SDS011;10438;51.454;6.718;2022-12-07T01:31:11;26.20;;;16.73;;
20559;SDS011;10438;51.454;6.718;2022-12-07T01:33:42;27.10;;;17.70;;
20559;SDS011;10438;51.454;6.718;2022-12-07T01:36:17;25.57;;;15.93;;
20559;SDS011;10438;51.454;6.718;2022-12-07T01:38:43;22.63;;;15.77;;
20559;SDS011;10438;51.454;6.718;2022-12-07T01:41:09;28.80;;;16.43;;
20559;SDS011;10438;51.454;6.718;2022-12-07T01:43:36;28.83;;;16.70;;
20559;SDS011;10438;51.454;6.718;2022-12-07T01:46:02;27.63;;;15.20;;
20559;SDS011;10438;51.454;6.718;2022-12-07T01:48:37;27.43;;;15.97;;
20559;SDS011;10438;51.454;6.718;2022-12-07T01:51:09;24.27;;;15.33;;
20559;SDS011;10438;51.454;6.718;2022-12-07T01:53:39;26.60;;;15.90;;
20559;SDS011;10438;51.454;6.718;2022-12-07T01:56:08;27.23;;;15.20;;
20559;SDS011;10438;51.454;6.718;2022-12-07T01:58:37;24.87;;;15.23;;
20559;SDS011;10438;51.454;6.718;2022-12-07T02:01:03;29.13;;;16.37;;
20559;SDS011;10438;51.454;6.718;2022-12-07T02:03:31;23.00;;;15.33;;
20559;SDS011;10438;51.454;6.718;2022-12-07T02:06:02;26.63;;;15.43;;
20559;SDS011;10438;51.454;6.718;2022-12-07T02:08:28;22.90;;;15.47;;
20559;SDS011;10438;51.454;6.718;2022-12-07T02:10:54;23.60;;;15.43;;
20559;SDS011;10438;51.454;6.718;2022-12-07T02:13:21;27.33;;;15.77;;
20559;SDS011;10438;51.454;6.718;2022-12-07T02:24:37;23.33;;;15.03;;
20559;SDS011;10438;51.454;6.718;2022-12-07T02:27:34;23.83;;;15.20;;
20559;SDS011;10438;51.454;6.718;2022-12-07T02:30:16;25.60;;;15.10;;
20559;SDS011;10438;51.454;6.718;2022-12-07T02:33:00;24.80;;;16.30;;
20559;SDS011;10438;51.454;6.718;2022-12-07T02:35:55;27.43;;;16.40;;
20559;SDS011;10438;51.454;6.718;2022-12-07T02:40:57;25.93;;;15.73;;
20559;SDS011;10438;51.454;6.718;2022-12-07T02:43:27;27.13;;;14.83;;
20559;SDS011;10438;51.454;6.718;2022-12-07T02:46:00;25.97;;;16.10;;
20559;SDS011;10438;51.454;6.718;2022-12-07T02:48:35;30.50;;;16.57;;
20559;SDS011;10438;51.454;6.718;2022-12-07T02:51:04;25.27;;;15.77;;
20559;SDS011;10438;51.454;6.718;2022-12-07T03:01:41;28.47;;;16.30;;
20559;SDS011;10438;51.454;6.718;2022-12-07T03:09:55;29.73;;;16.43;;
20559;SDS011;10438;51.454;6.718;2022-12-07T03:12:31;24.23;;;15.33;;
20559;SDS011;10438;51.454;6.718;2022-12-07T03:15:06;26.27;;;16.90;;
20559;SDS011;10438;51.454;6.718;2022-12-07T03:17:37;26.43;;;16.83;;
20559;SDS011;10438;51.454;6.718;2022-12-07T03:20:05;27.97;;;15.67;;
20559;SDS011;10438;51.454;6.718;2022-12-07T03:22:34;27.93;;;16.63;;
20559;SDS011;10438;51.454;6.718;2022-12-07T03:25:06;25.83;;;16.57;;
20559;SDS011;10438;51.454;6.718;2022-12-07T03:27:52;26.27;;;16.43;;
20559;SDS011;10438;51.454;6.718;2022-12-07T03:30:38;27.03;;;16.07;;
20559;SDS011;10438;51.454;6.718;2022-12-07T03:33:11;28.63;;;17.10;;
20559;SDS011;10438;51.454;6.718;2022-12-07T03:36:06;27.37;;;16.30;;
20559;SDS011;10438;51.454;6.718;2022-12-07T03:38:36;28.67;;;16.43;;
20559;SDS011;10438;51.454;6.718;2022-12-07T03:41:05;26.30;;;16.50;;
20559;SDS011;10438;51.454;6.718;2022-12-07T03:43:41;30.50;;;16.97;;
20559;SDS011;10438;51.454;6.718;2022-12-07T03:46:13;25.47;;;16.60;;
20559;SDS011;10438;51.454;6.718;2022-12-07T03:54:47;27.77;;;16.90;;
20559;SDS011;10438;51.454;6.718;2022-12-07T03:57:30;33.13;;;17.43;;
20559;SDS011;10438;51.454;6.718;2022-12-07T03:59:58;30.20;;;17.43;;
20559;SDS011;10438;51.454;6.718;2022-12-07T04:02:25;30.27;;;18.20;;
20559;SDS011;10438;51.454;6.718;2022-12-07T04:04:52;34.17;;;17.73;;
20559;SDS011;10438;51.454;6.718;2022-12-07T04:07:18;31.63;;;17.77;;
20559;SDS011;10438;51.454;6.718;2022-12-07T04:09:44;32.60;;;18.23;;
20559;SDS011;10438;51.454;6.718;2022-12-07T04:12:09;28.63;;;16.80;;
20559;SDS011;10438;51.454;6.718;2022-12-07T04:14:35;38.43;;;21.97;;
20559;SDS011;10438;51.454;6.718;2022-12-07T04:17:01;27.43;;;16.70;;
20559;SDS011;10438;51.454;6.718;2022-12-07T04:19:27;28.67;;;16.47;;
20559;SDS011;10438;51.454;6.718;2022-12-07T04:21:56;29.13;;;16.47;;
20559;SDS011;10438;51.454;6.718;2022-12-07T04:24:22;34.40;;;15.90;;
20559;SDS011;10438;51.454;6.718;2022-12-07T04:26:48;26.53;;;15.67;;
20559;SDS011;10438;51.454;6.718;2022-12-07T04:29:14;25.40;;;15.33;;
20559;SDS011;10438;51.454;6.718;2022-12-07T04:31:41;26.57;;;15.43;;
20559;SDS011;10438;51.454;6.718;2022-12-07T04:34:07;28.13;;;14.93;;
20559;SDS011;10438;51.454;6.718;2022-12-07T04:36:33;25.53;;;14.80;;
20559;SDS011;10438;51.454;6.718;2022-12-07T04:38:59;27.90;;;15.73;;
20559;SDS011;10438;51.454;6.718;2022-12-07T04:41:26;24.23;;;14.80;;
20559;SDS011;10438;51.454;6.718;2022-12-07T04:43:55;26.23;;;15.43;;
20559;SDS011;10438;51.454;6.718;2022-12-07T04:46:21;31.53;;;14.97;;
20559;SDS011;10438;51.454;6.718;2022-12-07T04:48:51;28.80;;;14.93;;
20559;SDS011;10438;51.454;6.718;2022-12-07T04:51:19;21.90;;;13.30;;
20559;SDS011;10438;51.454;6.718;2022-12-07T04:53:47;25.30;;;14.57;;
20559;SDS011;10438;51.454;6.718;2022-12-07T04:56:13;23.27;;;13.77;;
20559;SDS011;10438;51.454;6.718;2022-12-07T04:58:39;30.37;;;14.83;;
20559;SDS011;10438;51.454;6.718;2022-12-07T05:01:05;22.60;;;13.10;;
20559;SDS011;10438;51.454;6.718;2022-12-07T05:03:31;21.57;;;12.53;;
20559;SDS011;10438;51.454;6.718;2022-12-07T05:05:57;22.50;;;12.30;;
20559;SDS011;10438;51.454;6.718;2022-12-07T05:08:23;23.93;;;12.10;;
20559;SDS011;10438;51.454;6.718;2022-12-07T05:10:48;22.43;;;12.03;;
20559;SDS011;10438;51.454;6.718;2022-12-07T05:13:14;21.37;;;11.70;;
20559;SDS011;10438;51.454;6.718;2022-12-07T05:15:40;20.07;;;11.90;;
20559;SDS011;10438;51.454;6.718;2022-12-07T05:18:08;28.17;;;11.93;;
20559;SDS011;10438;51.454;6.718;2022-12-07T05:20:34;19.00;;;12.00;;
20559;SDS011;10438;51.454;6.718;2022-12-07T05:22:59;18.87;;;12.10;;
20559;SDS011;10438;51.454;6.718;2022-12-07T05:25:25;23.73;;;11.13;;
20559;SDS011;10438;51.454;6.718;2022-12-07T05:27:51;18.87;;;11.50;;
20559;SDS011;10438;51.454;6.718;2022-12-07T05:30:16;25.27;;;11.17;;
20559;SDS011;10438;51.454;6.718;2022-12-07T05:32:42;20.57;;;10.93;;
20559;SDS011;10438;51.454;6.718;2022-12-07T05:35:07;21.33;;;11.97;;
20559;SDS011;10438;51.454;6.718;2022-12-07T05:37:33;18.40;;;11.17;;
20559;SDS011;10438;51.454;6.718;2022-12-07T05:39:58;25.33;;;11.27;;
20559;SDS011;10438;51.454;6.718;2022-12-07T05:42:24;21.27;;;11.03;;
20559;SDS011;10438;51.454;6.718;2022-12-07T05:44:49;24.33;;;10.67;;
20559;SDS011;10438;51.454;6.718;2022-12-07T05:47:15;19.17;;;11.10;;
20559;SDS011;10438;51.454;6.718;2022-12-07T05:49:41;19.63;;;10.80;;
20559;SDS011;10438;51.454;6.718;2022-12-07T05:52:07;20.27;;;10.77;;
20559;SDS011;10438;51.454;6.718;2022-12-07T05:54:32;17.97;;;10.20;;
20559;SDS011;10438;51.454;6.718;2022-12-07T05:56:58;16.80;;;10.03;;
20559;SDS011;10438;51.454;6.718;2022-12-07T05:59:23;24.10;;;10.23;;
20559;SDS011;10438;51.454;6.718;2022-12-07T06:01:57;26.23;;;11.23;;
20559;SDS011;10438;51.454;6.718;2022-12-07T06:04:24;18.47;;;9.97;;
20559;SDS011;10438;51.454;6.718;2022-12-07T06:06:51;18.17;;;9.60;;
20559;SDS011;10438;51.454;6.718;2022-12-07T06:09:18;18.00;;;9.27;;
20559;SDS011;10438;51.454;6.718;2022-12-07T06:11:45;20.27;;;9.93;;
20559;SDS011;10438;51.454;6.718;2022-12-07T06:14:29;21.40;;;10.33;;
20559;SDS011;10438;51.454;6.718;2022-12-07T06:16:55;20.17;;;9.47;;
20559;SDS011;10438;51.454;6.718;2022-12-07T06:19:20;17.67;;;9.77;;
20559;SDS011;10438;51.454;6.718;2022-12-07T06:21:46;19.67;;;9.83;;
20559;SDS011;10438;51.454;6.718;2022-12-07T06:24:12;19.83;;;9.87;;
20559;SDS011;10438;51.454;6.718;2022-12-07T06:26:39;18.63;;;9.40;;
20559;SDS011;10438;51.454;6.718;2022-12-07T06:29:05;19.50;;;9.73;;
20559;SDS011;10438;51.454;6.718;2022-12-07T06:31:31;26.27;;;10.43;;
20559;SDS011;10438;51.454;6.718;2022-12-07T06:34:00;19.40;;;9.87;;
20559;SDS011;10438;51.454;6.718;2022-12-07T06:36:27;21.60;;;10.47;;
20559;SDS011;10438;51.454;6.718;2022-12-07T06:38:53;18.30;;;10.80;;
20559;SDS011;10438;51.454;6.718;2022-12-07T06:41:19;20.43;;;10.00;;
20559;SDS011;10438;51.454;6.718;2022-12-07T06:43:44;16.50;;;10.07;;
20559;SDS011;10438;51.454;6.718;2022-12-07T06:46:10;19.10;;;10.40;;
20559;SDS011;10438;51.454;6.718;2022-12-07T06:48:35;19.27;;;11.00;;
20559;SDS011;10438;51.454;6.718;2022-12-07T06:51:01;20.57;;;10.77;;
20559;SDS011;10438;51.454;6.718;2022-12-07T06:53:27;19.00;;;10.93;;
20559;SDS011;10438;51.454;6.718;2022-12-07T06:55:52;26.40;;;10.80;;
20559;SDS011;10438;51.454;6.718;2022-12-07T06:58:18;17.67;;;10.33;;
20559;SDS011;10438;51.454;6.718;2022-12-07T07:00:43;21.77;;;11.50;;
20559;SDS011;10438;51.454;6.718;2022-12-07T07:03:10;18.80;;;11.47;;
20559;SDS011;10438;51.454;6.718;2022-12-07T07:05:35;25.47;;;11.93;;
20559;SDS011;10438;51.454;6.718;2022-12-07T07:08:01;20.87;;;11.57;;
20559;SDS011;10438;51.454;6.718;2022-12-07T07:10:27;21.47;;;12.10;;
20559;SDS011;10438;51.454;6.718;2022-12-07T07:12:53;22.53;;;10.97;;
20559;SDS011;10438;51.454;6.718;2022-12-07T07:15:18;19.80;;;11.90;;
20559;SDS011;10438;51.454;6.718;2022-12-07T07:17:44;26.73;;;11.80;;
20559;SDS011;10438;51.454;6.718;2022-12-07T07:20:10;20.93;;;12.23;;
20559;SDS011;10438;51.454;6.718;2022-12-07T07:22:36;25.07;;;11.60;;
20559;SDS011;10438;51.454;6.718;2022-12-07T07:25:01;21.40;;;12.00;;
20559;SDS011;10438;51.454;6.718;2022-12-07T07:27:27;21.50;;;11.47;;
20559;SDS011;10438;51.454;6.718;2022-12-07T07:29:53;22.83;;;11.80;;
20559;SDS011;10438;51.454;6.718;2022-12-07T07:32:18;20.73;;;12.57;;
20559;SDS011;10438;51.454;6.718;2022-12-07T07:34:44;26.43;;;12.67;;
20559;SDS011;10438;51.454;6.718;2022-12-07T07:37:09;25.33;;;12.80;;
20559;SDS011;10438;51.454;6.718;2022-12-07T07:39:37;23.40;;;12.80;;
20559;SDS011;10438;51.454;6.718;2022-12-07T07:42:03;20.53;;;11.20;;
20559;SDS011;10438;51.454;6.718;2022-12-07T07:44:29;21.07;;;11.70;;
20559;SDS011;10438;51.454;6.718;2022-12-07T07:46:54;22.57;;;12.30;;
20559;SDS011;10438;51.454;6.718;2022-12-07T07:49:20;26.13;;;11.80;;
20559;SDS011;10438;51.454;6.718;2022-12-07T07:51:45;19.07;;;11.10;;
20559;SDS011;10438;51.454;6.718;2022-12-07T07:54:11;26.43;;;11.67;;
20559;SDS011;10438;51.454;6.718;2022-12-07T07:56:36;23.37;;;12.20;;
20559;SDS011;10438;51.454;6.718;2022-12-07T07:59:02;19.00;;;10.97;;
20559;SDS011;10438;51.454;6.718;2022-12-07T08:01:28;26.07;;;13.23;;
20559;SDS011;10438;51.454;6.718;2022-12-07T08:03:53;25.50;;;12.10;;
20559;SDS011;10438;51.454;6.718;2022-12-07T08:06:18;22.13;;;12.13;;
20559;SDS011;10438;51.454;6.718;2022-12-07T08:08:44;24.00;;;12.27;;
20559;SDS011;10438;51.454;6.718;2022-12-07T08:11:09;24.73;;;12.97;;
20559;SDS011;10438;51.454;6.718;2022-12-07T08:13:36;20.87;;;11.93;;
20559;SDS011;10438;51.454;6.718;2022-12-07T08:16:06;21.57;;;12.10;;
20559;SDS011;10438;51.454;6.718;2022-12-07T08:18:36;23.37;;;13.03;;
20559;SDS011;10438;51.454;6.718;2022-12-07T08:21:03;26.60;;;13.67;;
20559;SDS011;10438;51.454;6.718;2022-12-07T08:23:30;25.33;;;13.00;;
20559;SDS011;10438;51.454;6.718;2022-12-07T08:25:59;27.57;;;13.53;;
20559;SDS011;10438;51.454;6.718;2022-12-07T08:28:28;29.03;;;12.97;;
20559;SDS011;10438;51.454;6.718;2022-12-07T08:31:04;22.57;;;12.97;;
20559;SDS011;10438;51.454;6.718;2022-12-07T08:33:36;21.77;;;13.00;;
20559;SDS011;10438;51.454;6.718;2022-12-07T08:36:06;30.20;;;14.50;;
20559;SDS011;10438;51.454;6.718;2022-12-07T08:38:35;24.20;;;12.90;;
20559;SDS011;10438;51.454;6.718;2022-12-07T08:41:01;24.93;;;12.10;;
20559;SDS011;10438;51.454;6.718;2022-12-07T08:43:27;26.20;;;11.97;;
20559;SDS011;10438;51.454;6.718;2022-12-07T08:45:55;20.63;;;11.60;;
20559;SDS011;10438;51.454;6.718;2022-12-07T08:48:30;24.60;;;11.60;;
20559;SDS011;10438;51.454;6.718;2022-12-07T08:50:57;19.13;;;12.17;;
20559;SDS011;10438;51.454;6.718;2022-12-07T08:53:23;22.80;;;11.50;;
20559;SDS011;10438;51.454;6.718;2022-12-07T08:55:49;22.10;;;11.23;;
20559;SDS011;10438;51.454;6.718;2022-12-07T08:58:15;18.03;;;10.63;;
20559;SDS011;10438;51.454;6.718;2022-12-07T09:00:40;19.03;;;10.47;;
20559;SDS011;10438;51.454;6.718;2022-12-07T09:03:06;24.37;;;10.43;;
20559;SDS011;10438;51.454;6.718;2022-12-07T09:05:32;20.43;;;10.43;;
20559;SDS011;10438;51.454;6.718;2022-12-07T09:07:59;21.60;;;10.33;;
20559;SDS011;10438;51.454;6.718;2022-12-07T09:10:26;18.23;;;9.53;;
20559;SDS011;10438;51.454;6.718;2022-12-07T09:12:52;17.70;;;9.50;;
20559;SDS011;10438;51.454;6.718;2022-12-07T09:15:17;20.00;;;8.50;;
20559;SDS011;10438;51.454;6.718;2022-12-07T09:17:43;16.63;;;8.57;;
20559;SDS011;10438;51.454;6.718;2022-12-07T09:20:08;13.83;;;7.53;;
20559;SDS011;10438;51.454;6.718;2022-12-07T09:22:34;17.17;;;7.03;;
20559;SDS011;10438;51.454;6.718;2022-12-07T09:25:00;16.60;;;6.97;;
20559;SDS011;10438;51.454;6.718;2022-12-07T09:27:26;16.63;;;7.47;;
20559;SDS011;10438;51.454;6.718;2022-12-07T09:29:52;17.53;;;7.27;;
20559;SDS011;10438;51.454;6.718;2022-12-07T09:32:18;19.10;;;7.13;;
20559;SDS011;10438;51.454;6.718;2022-12-07T09:34:43;14.60;;;6.40;;
20559;SDS011;10438;51.454;6.718;2022-12-07T09:37:09;15.37;;;7.07;;
20559;SDS011;10438;51.454;6.718;2022-12-07T09:39:37;18.07;;;6.97;;
20559;SDS011;10438;51.454;6.718;2022-12-07T09:42:03;15.10;;;7.53;;
20559;SDS011;10438;51.454;6.718;2022-12-07T09:44:30;15.57;;;7.07;;
20559;SDS011;10438;51.454;6.718;2022-12-07T09:46:56;14.93;;;6.20;;
20559;SDS011;10438;51.454;6.718;2022-12-07T09:49:23;15.07;;;6.37;;
20559;SDS011;10438;51.454;6.718;2022-12-07T09:52:02;18.07;;;6.53;;
20559;SDS011;10438;51.454;6.718;2022-12-07T09:54:30;11.27;;;6.07;;
20559;SDS011;10438;51.454;6.718;2022-12-07T09:56:58;15.13;;;6.10;;
20559;SDS011;10438;51.454;6.718;2022-12-07T09:59:24;13.57;;;5.43;;
20559;SDS011;10438;51.454;6.718;2022-12-07T10:01:50;13.97;;;5.20;;
20559;SDS011;10438;51.454;6.718;2022-12-07T10:04:20;17.20;;;5.17;;
20559;SDS011;10438;51.454;6.718;2022-12-07T10:06:48;13.03;;;5.33;;
20559;SDS011;10438;51.454;6.718;2022-12-07T10:09:14;10.23;;;5.07;;
20559;SDS011;10438;51.454;6.718;2022-12-07T10:14:35;11.73;;;4.43;;
20559;SDS011;10438;51.454;6.718;2022-12-07T10:17:17;9.67;;;4.27;;
20559;SDS011;10438;51.454;6.718;2022-12-07T10:20:08;15.47;;;4.47;;
20559;SDS011;10438;51.454;6.718;2022-12-07T10:22:59;10.37;;;3.40;;
20559;SDS011;10438;51.454;6.718;2022-12-07T10:25:45;10.47;;;4.10;;
20559;SDS011;10438;51.454;6.718;2022-12-07T10:28:17;11.10;;;3.80;;
20559;SDS011;10438;51.454;6.718;2022-12-07T10:30:56;11.77;;;4.00;;
20559;SDS011;10438;51.454;6.718;2022-12-07T10:33:48;14.67;;;4.27;;
20559;SDS011;10438;51.454;6.718;2022-12-07T10:36:22;11.60;;;4.30;;
20559;SDS011;10438;51.454;6.718;2022-12-07T10:39:15;10.87;;;4.03;;
20559;SDS011;10438;51.454;6.718;2022-12-07T10:41:55;13.17;;;4.30;;
20559;SDS011;10438;51.454;6.718;2022-12-07T10:44:23;10.07;;;3.97;;
20559;SDS011;10438;51.454;6.718;2022-12-07T10:52:21;9.33;;;4.60;;
20559;SDS011;10438;51.454;6.718;2022-12-07T10:55:08;11.60;;;4.20;;
20559;SDS011;10438;51.454;6.718;2022-12-07T10:57:45;11.00;;;4.50;;
20559;SDS011;10438;51.454;6.718;2022-12-07T11:00:40;11.87;;;3.73;;
20559;SDS011;10438;51.454;6.718;2022-12-07T11:09:04;8.23;;;3.53;;
20559;SDS011;10438;51.454;6.718;2022-12-07T11:11:36;10.60;;;4.10;;
20559;SDS011;10438;51.454;6.718;2022-12-07T11:14:18;10.27;;;4.00;;
20559;SDS011;10438;51.454;6.718;2022-12-07T11:17:08;13.20;;;4.27;;
20559;SDS011;10438;51.454;6.718;2022-12-07T11:29:15;9.03;;;3.47;;
20559;SDS011;10438;51.454;6.718;2022-12-07T11:37:23;11.53;;;3.90;;
20559;SDS011;10438;51.454;6.718;2022-12-07T11:39:55;11.03;;;3.60;;
20559;SDS011;10438;51.454;6.718;2022-12-07T11:42:30;10.03;;;3.27;;
20559;SDS011;10438;51.454;6.718;2022-12-07T11:45:04;9.53;;;3.60;;
20559;SDS011;10438;51.454;6.718;2022-12-07T11:47:59;11.00;;;3.47;;
20559;SDS011;10438;51.454;6.718;2022-12-07T11:50:48;13.87;;;3.70;;
20559;SDS011;10438;51.454;6.718;2022-12-07T11:53:20;8.03;;;3.40;;
20559;SDS011;10438;51.454;6.718;2022-12-07T11:56:09;13.87;;;3.47;;
20559;SDS011;10438;51.454;6.718;2022-12-07T12:06:26;10.50;;;3.33;;
20559;SDS011;10438;51.454;6.718;2022-12-07T12:14:18;10.57;;;3.63;;
20559;SDS011;10438;51.454;6.718;2022-12-07T12:19:25;13.77;;;3.40;;
20559;SDS011;10438;51.454;6.718;2022-12-07T12:21:56;12.30;;;3.47;;
20559;SDS011;10438;51.454;6.718;2022-12-07T12:24:31;8.93;;;3.40;;
20559;SDS011;10438;51.454;6.718;2022-12-07T12:27:05;8.80;;;3.53;;
20559;SDS011;10438;51.454;6.718;2022-12-07T12:29:35;12.97;;;4.13;;
20559;SDS011;10438;51.454;6.718;2022-12-07T12:32:05;11.07;;;3.50;;
20559;SDS011;10438;51.454;6.718;2022-12-07T12:34:38;8.80;;;3.43;;
20559;SDS011;10438;51.454;6.718;2022-12-07T12:37:14;8.37;;;3.20;;
20559;SDS011;10438;51.454;6.718;2022-12-07T12:42:46;6.63;;;2.67;;
20559;SDS011;10438;51.454;6.718;2022-12-07T12:45:17;6.97;;;2.30;;
20559;SDS011;10438;51.454;6.718;2022-12-07T12:47:52;11.53;;;4.70;;
20559;SDS011;10438;51.454;6.718;2022-12-07T12:50:23;10.03;;;2.97;;
20559;SDS011;10438;51.454;6.718;2022-12-07T12:52:52;7.97;;;3.00;;
20559;SDS011;10438;51.454;6.718;2022-12-07T13:00:45;12.27;;;3.00;;
20559;SDS011;10438;51.454;6.718;2022-12-07T13:03:26;11.17;;;3.30;;
20559;SDS011;10438;51.454;6.718;2022-12-07T13:08:44;9.23;;;3.40;;
20559;SDS011;10438;51.454;6.718;2022-12-07T13:11:17;9.50;;;3.00;;
20559;SDS011;10438;51.454;6.718;2022-12-07T13:16:59;7.33;;;2.73;;
20559;SDS011;10438;51.454;6.718;2022-12-07T13:27:55;8.03;;;3.00;;
20559;SDS011;10438;51.454;6.718;2022-12-07T13:30:26;9.80;;;3.27;;
20559;SDS011;10438;51.454;6.718;2022-12-07T13:32:54;8.43;;;3.00;;
20559;SDS011;10438;51.454;6.718;2022-12-07T13:35:35;9.90;;;3.17;;
20559;SDS011;10438;51.454;6.718;2022-12-07T13:38:13;8.83;;;2.87;;
20559;SDS011;10438;51.454;6.718;2022-12-07T13:43:43;8.07;;;2.77;;
20559;SDS011;10438;51.454;6.718;2022-12-07T13:46:10;13.30;;;2.93;;
20559;SDS011;10438;51.454;6.718;2022-12-07T13:48:49;8.80;;;2.83;;
20559;SDS011;10438;51.454;6.718;2022-12-07T13:51:19;11.97;;;2.80;;
20559;SDS011;10438;51.454;6.718;2022-12-07T13:53:51;9.93;;;2.80;;
20559;SDS011;10438;51.454;6.718;2022-12-07T13:56:20;12.50;;;3.20;;
20559;SDS011;10438;51.454;6.718;2022-12-07T13:58:47;10.57;;;2.67;;
20559;SDS011;10438;51.454;6.718;2022-12-07T14:01:13;7.90;;;2.93;;
20559;SDS011;10438;51.454;6.718;2022-12-07T14:03:38;6.13;;;2.50;;
20559;SDS011;10438;51.454;6.718;2022-12-07T14:06:06;8.90;;;2.93;;
20559;SDS011;10438;51.454;6.718;2022-12-07T14:08:40;11.80;;;3.20;;
20559;SDS011;10438;51.454;6.718;2022-12-07T14:11:06;9.43;;;2.57;;
20559;SDS011;10438;51.454;6.718;2022-12-07T14:18:50;9.63;;;2.47;;
20559;SDS011;10438;51.454;6.718;2022-12-07T14:21:17;10.10;;;2.40;;
20559;SDS011;10438;51.454;6.718;2022-12-07T14:23:45;11.90;;;2.23;;
20559;SDS011;10438;51.454;6.718;2022-12-07T14:26:27;8.63;;;2.60;;
20559;SDS011;10438;51.454;6.718;2022-12-07T14:28:52;11.20;;;2.93;;
20559;SDS011;10438;51.454;6.718;2022-12-07T14:31:38;6.90;;;2.00;;
20559;SDS011;10438;51.454;6.718;2022-12-07T14:34:03;11.60;;;2.73;;
20559;SDS011;10438;51.454;6.718;2022-12-07T14:36:29;11.77;;;2.87;;
20559;SDS011;10438;51.454;6.718;2022-12-07T14:38:54;9.63;;;2.43;;
20559;SDS011;10438;51.454;6.718;2022-12-07T14:41:22;12.03;;;2.50;;
20559;SDS011;10438;51.454;6.718;2022-12-07T14:44:09;8.10;;;2.63;;
20559;SDS011;10438;51.454;6.718;2022-12-07T14:46:36;9.73;;;2.63;;
20559;SDS011;10438;51.454;6.718;2022-12-07T14:49:02;11.80;;;2.53;;
20559;SDS011;10438;51.454;6.718;2022-12-07T14:51:27;12.23;;;2.50;;
20559;SDS011;10438;51.454;6.718;2022-12-07T14:53:53;10.30;;;2.90;;
20559;SDS011;10438;51.454;6.718;2022-12-07T14:56:19;13.57;;;2.70;;
20559;SDS011;10438;51.454;6.718;2022-12-07T14:58:44;9.00;;;2.60;;
20559;SDS011;10438;51.454;6.718;2022-12-07T15:01:12;12.27;;;2.70;;
20559;SDS011;10438;51.454;6.718;2022-12-07T15:03:38;7.23;;;2.57;;
20559;SDS011;10438;51.454;6.718;2022-12-07T15:06:04;9.67;;;2.70;;
20559;SDS011;10438;51.454;6.718;2022-12-07T15:08:30;9.77;;;2.73;;
20559;SDS011;10438;51.454;6.718;2022-12-07T15:10:56;8.37;;;3.10;;
20559;SDS011;10438;51.454;6.718;2022-12-07T15:13:21;7.70;;;2.80;;
20559;SDS011;10438;51.454;6.718;2022-12-07T15:16:07;17.00;;;3.47;;
20559;SDS011;10438;51.454;6.718;2022-12-07T15:18:35;16.13;;;4.03;;
20559;SDS011;10438;51.454;6.718;2022-12-07T15:21:01;10.60;;;3.50;;
20559;SDS011;10438;51.454;6.718;2022-12-07T15:23:26;8.63;;;3.57;;
20559;SDS011;10438;51.454;6.718;2022-12-07T15:25:52;12.17;;;4.47;;
20559;SDS011;10438;51.454;6.718;2022-12-07T15:28:17;13.40;;;4.50;;
20559;SDS011;10438;51.454;6.718;2022-12-07T15:30:44;12.37;;;3.87;;
20559;SDS011;10438;51.454;6.718;2022-12-07T15:33:10;10.93;;;3.10;;
20559;SDS011;10438;51.454;6.718;2022-12-07T15:35:43;12.40;;;3.70;;
20559;SDS011;10438;51.454;6.718;2022-12-07T15:38:09;14.17;;;4.00;;
20559;SDS011;10438;51.454;6.718;2022-12-07T15:40:35;10.70;;;3.73;;
20559;SDS011;10438;51.454;6.718;2022-12-07T15:43:01;17.67;;;4.53;;
20559;SDS011;10438;51.454;6.718;2022-12-07T15:45:27;13.63;;;4.10;;
20559;SDS011;10438;51.454;6.718;2022-12-07T15:47:52;16.93;;;4.50;;
20559;SDS011;10438;51.454;6.718;2022-12-07T15:50:20;13.00;;;3.97;;
20559;SDS011;10438;51.454;6.718;2022-12-07T15:52:45;13.07;;;4.73;;
20559;SDS011;10438;51.454;6.718;2022-12-07T15:55:11;14.07;;;4.33;;
20559;SDS011;10438;51.454;6.718;2022-12-07T15:57:37;11.20;;;4.00;;
20559;SDS011;10438;51.454;6.718;2022-12-07T16:00:05;11.03;;;4.30;;
20559;SDS011;10438;51.454;6.718;2022-12-07T16:02:32;14.23;;;5.03;;
20559;SDS011;10438;51.454;6.718;2022-12-07T16:04:58;14.60;;;5.17;;
20559;SDS011;10438;51.454;6.718;2022-12-07T16:07:23;16.50;;;3.93;;
20559;SDS011;10438;51.454;6.718;2022-12-07T16:09:49;11.03;;;3.57;;
20559;SDS011;10438;51.454;6.718;2022-12-07T16:12:15;17.63;;;3.90;;
20559;SDS011;10438;51.454;6.718;2022-12-07T16:14:40;10.53;;;4.17;;
20559;SDS011;10438;51.454;6.718;2022-12-07T16:17:07;14.83;;;5.70;;
20559;SDS011;10438;51.454;6.718;2022-12-07T16:19:33;22.53;;;4.30;;
20559;SDS011;10438;51.454;6.718;2022-12-07T16:21:59;8.50;;;3.80;;
20559;SDS011;10438;51.454;6.718;2022-12-07T16:24:25;7.93;;;3.57;;
20559;SDS011;10438;51.454;6.718;2022-12-07T16:26:51;10.50;;;3.50;;
20559;SDS011;10438;51.454;6.718;2022-12-07T16:29:18;8.97;;;3.77;;